Norman Atlantic — IBUM — position and weather

sailwx.info

Track history (hours):
 
Tides and Currents Weather Stations Pressure Air Temp Water Temp Dewpoint Dewpoint Depression Visibility Wind Speed Wind Dir Waves Ship Positions

Norman Atlantic

Last reported at 2014-Sep-22 03:16 UTC. Time now 2014-Sep-22 08:16 UTC.
Position N 37°30' E 005°36'.

Length 186 m; draft 6 m.

Type: Passenger vessel. MMSI: 247277400.

Date/timePositionNaut miles runAvg speedWind from/ knotsBaromVisibWave heightAir tempDewpointWater temp
2014-Sep-22 03:16N 37°30' E 005°36'1319.1
2014-Sep-22 02:33N 37°27' E 005°20'2219.0
2014-Sep-22 01:24N 37°23' E 004°53'1618.5
2014-Sep-22 00:33N 37°20' E 004°33'4319.5
2014-Sep-21 22:22N 37°13' E 003°40'1819.5
2014-Sep-21 21:28N 37°10' E 003°18'1819.4
2014-Sep-21 20:33N 37°06' E 002°57'1919.4
2014-Sep-21 19:34N 37°03' E 002°33'2219.3
2014-Sep-21 18:26N 36°59' E 002°06'1719.6
2014-Sep-21 17:33N 36°55' E 001°45'2020.2
2014-Sep-21 16:33N 36°50' E 001°21'2019.4
2014-Sep-21 15:31N 36°47' E 000°56'7919.4
2014-Sep-21 11:27N 36°35' W 000°42'22119.4
2014-Sep-21 00:03N 36°00' W 005°12'1121.4
2014-Sep-20 23:33N 35°58' W 005°25'10820.6
2014-Sep-20 18:19N 36°12' W 007°38'66115.8
2014-Sep-19 00:33N 46°44' W 003°18'2020.4
2014-Sep-18 23:33N 46°56' W 002°55'2120.7
2014-Sep-18 22:33N 47°04' W 002°27'1717.3
2014-Sep-18 21:33N 47°17' W 002°10'35 0.9
2014-Sep-17 06:30N 46°54' W 002°47'4419.4
2014-Sep-17 04:13N 46°17' W 003°24'7719.0
2014-Sep-17 00:10N 45°11' W 004°20'7819.4
2014-Sep-16 20:10N 44°04' W 005°15'1219.5
2014-Sep-16 19:32N 43°53' W 005°23'1919.8
2014-Sep-16 18:33N 43°36' W 005°37'0 0.0
2014-Sep-16 08:34N 43°36' W 005°37'1918.6
2014-Sep-16 07:33N 43°52' W 005°24'3718.4
2014-Sep-16 05:33N 44°24' W 004°58'7416.9
2014-Sep-16 01:11N 45°28' W 004°06'3217.4
2014-Sep-15 23:22N 45°55' W 003°43'1518.0
2014-Sep-15 22:33N 46°08' W 003°32'2017.6
2014-Sep-15 21:25N 46°25' W 003°18'3317.5
2014-Sep-15 19:32N 46°53' W 002°52'1817.4
2014-Sep-15 18:28N 47°04' W 002°30'212 7.8
2014-Sep-14 15:14N 44°05' W 005°13'1319.1
2014-Sep-14 14:33N 43°54' W 005°22'1919.3
2014-Sep-14 13:33N 43°38' W 005°35'6 5.5
2014-Sep-14 12:28N 43°33' W 005°41'0 0.0
2014-Sep-14 07:31N 43°33' W 005°41'0 0.0
2014-Sep-14 05:25N 43°33' W 005°41'0 0.0
2014-Sep-14 04:31N 43°33' W 005°41'0 0.0
2014-Sep-14 01:31N 43°33' W 005°41'0 0.0
2014-Sep-13 18:22N 43°33' W 005°41'0 0.0
2014-Sep-13 14:25N 43°33' W 005°41'0 0.0
2014-Sep-13 11:33N 43°34' W 005°41'1514.7
2014-Sep-13 10:33N 43°46' W 005°30'19919.4
2014-Sep-13 00:19N 46°37' W 003°07'1618.0
2014-Sep-12 23:24N 46°51' W 002°54'1518.2
2014-Sep-12 22:33N 47°02' W 002°38'1817.8
2014-Sep-12 21:34N 47°12' W 002°17'23 1.6
2014-Sep-12 07:09N 46°58' W 002°43'  
Track history (hours):
 
Tides and Currents Weather Stations Pressure Air Temp Water Temp Dewpoint Dewpoint Depression Visibility Wind Speed Wind Dir Waves Ship Positions

Norman Atlantic

Last reported at 2014-Sep-22 03:16 UTC. Time now 2014-Sep-22 08:16 UTC.
Position N 37°30' E 005°36'.

Length 186 m; draft 6 m.

Type: Passenger vessel. MMSI: 247277400.

Date/timePositionNaut miles runAvg speedWind from/ knotsBaromVisibWave heightAir tempDewpointWater temp
2014-Sep-22 03:16N 37°30' E 005°36'1319.1
2014-Sep-22 02:33N 37°27' E 005°20'2219.0
2014-Sep-22 01:24N 37°23' E 004°53'1618.5
2014-Sep-22 00:33N 37°20' E 004°33'4319.5
2014-Sep-21 22:22N 37°13' E 003°40'1819.5
2014-Sep-21 21:28N 37°10' E 003°18'1819.4
2014-Sep-21 20:33N 37°06' E 002°57'1919.4
2014-Sep-21 19:34N 37°03' E 002°33'2219.3
2014-Sep-21 18:26N 36°59' E 002°06'1719.6
2014-Sep-21 17:33N 36°55' E 001°45'2020.2
2014-Sep-21 16:33N 36°50' E 001°21'2019.4
2014-Sep-21 15:31N 36°47' E 000°56'7919.4
2014-Sep-21 11:27N 36°35' W 000°42'22119.4
2014-Sep-21 00:03N 36°00' W 005°12'1121.4
2014-Sep-20 23:33N 35°58' W 005°25'10820.6
2014-Sep-20 18:19N 36°12' W 007°38'66115.8
2014-Sep-19 00:33N 46°44' W 003°18'2020.4
2014-Sep-18 23:33N 46°56' W 002°55'2120.7
2014-Sep-18 22:33N 47°04' W 002°27'1717.3
2014-Sep-18 21:33N 47°17' W 002°10'35 0.9
2014-Sep-17 06:30N 46°54' W 002°47'4419.4
2014-Sep-17 04:13N 46°17' W 003°24'7719.0
2014-Sep-17 00:10N 45°11' W 004°20'7819.4
2014-Sep-16 20:10N 44°04' W 005°15'1219.5
2014-Sep-16 19:32N 43°53' W 005°23'1919.8
2014-Sep-16 18:33N 43°36' W 005°37'0 0.0
2014-Sep-16 08:34N 43°36' W 005°37'1918.6
2014-Sep-16 07:33N 43°52' W 005°24'3718.4
2014-Sep-16 05:33N 44°24' W 004°58'7416.9
2014-Sep-16 01:11N 45°28' W 004°06'3217.4
2014-Sep-15 23:22N 45°55' W 003°43'1518.0
2014-Sep-15 22:33N 46°08' W 003°32'2017.6
2014-Sep-15 21:25N 46°25' W 003°18'3317.5
2014-Sep-15 19:32N 46°53' W 002°52'1817.4
2014-Sep-15 18:28N 47°04' W 002°30'212 7.8
2014-Sep-14 15:14N 44°05' W 005°13'1319.1
2014-Sep-14 14:33N 43°54' W 005°22'1919.3
2014-Sep-14 13:33N 43°38' W 005°35'6 5.5
2014-Sep-14 12:28N 43°33' W 005°41'0 0.0
2014-Sep-14 07:31N 43°33' W 005°41'0 0.0
2014-Sep-14 05:25N 43°33' W 005°41'0 0.0
2014-Sep-14 04:31N 43°33' W 005°41'0 0.0
2014-Sep-14 01:31N 43°33' W 005°41'0 0.0
2014-Sep-13 18:22N 43°33' W 005°41'0 0.0
2014-Sep-13 14:25N 43°33' W 005°41'0 0.0
2014-Sep-13 11:33N 43°34' W 005°41'1514.7
2014-Sep-13 10:33N 43°46' W 005°30'19919.4
2014-Sep-13 00:19N 46°37' W 003°07'1618.0
2014-Sep-12 23:24N 46°51' W 002°54'1518.2
2014-Sep-12 22:33N 47°02' W 002°38'1817.8
2014-Sep-12 21:34N 47°12' W 002°17'23 1.6
2014-Sep-12 07:09N 46°58' W 002°43'  

Dump ship's entire track history